Estación Meteorológica Peña el Pijo (Robertgarden) [ 12/17/17 01:27:24 CET ]

Fecha Hora Presion(HPa) Temp (°C) Humedad % Rocio (°C) Viento ( m/s) Direccion Lluvia 1Hora(mm) Lluvia 24H(mm) LLuvia Total(mm)
2017-Oct-24 01:01:32 1016.800 7.6 77 3.8         1466.45
2017-Oct-24 02:01:58 1016.800 6.7 78 3.1         1466.45
2017-Oct-24 03:04:08 1016.600 5.6 79 2.2         1466.45
2017-Oct-24 04:01:53 1016.600 4.9 80 1.7         1466.45
2017-Oct-24 05:01:47 1016.500 4.5 81 1.5         1466.45
2017-Oct-24 06:01:45 1016.400 3.5 82 0.7         1466.45
2017-Oct-24 07:01:42 1016.600 3.1 83 0.5         1466.45
2017-Oct-24 08:02:05 1016.600 3.1 83 0.5         1466.45
2017-Oct-24 09:01:49 1016.800 2.9 83 0.3         1466.45
2017-Oct-24 10:01:43 1016.900 8.5 84 5.9         1466.45
2017-Oct-24 11:01:42 1016.800 17.6 56 8.7         1466.45
2017-Oct-24 12:01:36 1016.600 22.5 36 6.6 1.4 SSW     1466.45
2017-Oct-24 13:01:43 1016.200 24.9 31 6.6         1466.45
2017-Oct-24 14:01:44 1015.600 25.4 26 4.3         1466.45
2017-Oct-24 15:01:36 1014.900 25.9 24 3.5         1466.45
2017-Oct-24 16:01:49 1014.400 26.1 23 3.1         1466.45
2017-Oct-24 17:01:38 1014.500 25.6 24 3.3         1466.45
2017-Oct-24 18:01:36 1014.900 23.1 27 2.9 2.0 SSE     1466.45
2017-Oct-24 19:01:44 1015.100 19.8 32 2.5         1466.45
2017-Oct-24 20:01:35 1015.800 16.3 38 1.9         1466.45
2017-Oct-24 21:01:24 1016.300 11.8 51 2.0         1466.45
2017-Oct-24 22:01:55 1016.500 9.8 59 2.2         1466.45
2017-Oct-24 23:01:41 1016.800 8.1 66 2.1         1466.45

Temperatura Máxima:26°    Temperatura Mínima:
Presión Máxima:1016.900 Hpa    Presión Mínima:1014.400 Hpa


Volver